Time;durP1;ratioP1;P1;durP2;ratioP2;P2;SDS_P1;SDS_P2;PMS_P1;PMS_P2;Temp;Humidity;BMP_temperature;BMP_pressure;BME280_temperature;BME280_humidity;BME280_pressure;Samples;Min_cycle;Max_cycle;Signal;HPM_P1;HPM_P2
2022/06/24 00:02:25;;;;;;;30.60;7.90;;;;;;;16.71;57.89;98614.44;432512;1273;110981;-42
2022/06/24 00:12:28;;;;;;;12.00;6.00;;;;;;;16.55;58.36;98612.30;432312;1272;108899;-41
2022/06/24 00:22:40;;;;;;;13.80;6.40;;;;;;;16.45;58.74;98609.64;432609;1271;97511;-42
2022/06/24 00:32:44;;;;;;;7.80;6.50;;;;;;;16.33;59.28;98611.83;432470;1273;109197;-41
2022/06/24 00:42:49;;;;;;;9.10;6.90;;;;;;;16.21;59.53;98610.98;432645;1271;97932;-42
2022/06/24 00:52:53;;;;;;;11.70;6.30;;;;;;;16.20;59.76;98607.61;432439;1271;111014;-41
2022/06/24 01:02:56;;;;;;;9.20;6.20;;;;;;;16.11;59.90;98604.11;432340;1271;97906;-44
2022/06/24 01:13:14;;;;;;;12.10;5.20;;;;;;;16.21;59.95;98599.83;432553;1263;97979;-44
2022/06/24 01:33:26;;;;;;;7.10;6.30;;;;;;;16.10;60.29;98579.23;432425;1271;108784;-41
2022/06/24 01:43:30;;;;;;;9.30;7.10;;;;;;;15.82;60.59;98577.08;432403;1269;97917;-43
2022/06/24 01:53:34;;;;;;;9.60;6.30;;;;;;;15.47;60.63;98571.95;424935;1271;10398431;-43
2022/06/24 02:13:42;;;;;;;11.80;6.20;;;;;;;15.12;61.62;98571.69;432610;1270;111099;-46
2022/06/24 02:23:45;;;;;;;10.70;6.70;;;;;;;15.07;62.20;98575.27;432561;1271;108912;-45
2022/06/24 02:33:50;;;;;;;14.90;6.90;;;;;;;14.83;62.33;98576.55;432477;1271;97923;-42
2022/06/24 02:43:54;;;;;;;15.80;7.10;;;;;;;14.74;62.76;98570.44;432536;1271;97543;-43
2022/06/24 02:53:57;;;;;;;8.30;5.80;;;;;;;14.78;62.94;98573.38;432588;1271;109747;-46
2022/06/24 03:04:01;;;;;;;12.10;9.70;;;;;;;14.87;63.16;98576.62;432551;1271;97966;-44
2022/06/24 03:14:05;;;;;;;11.80;8.80;;;;;;;15.01;63.21;98574.55;432578;1271;96686;-43
2022/06/24 03:24:09;;;;;;;10.90;7.30;;;;;;;17.70;61.94;98568.38;432515;1271;108889;-43
2022/06/24 03:34:13;;;;;;;9.00;7.40;;;;;;;20.70;59.01;98561.66;432331;1271;98604;-44
2022/06/24 03:44:17;;;;;;;9.20;6.00;;;;;;;22.80;56.54;98561.40;432714;1271;98074;-44
2022/06/24 03:54:21;;;;;;;7.60;5.60;;;;;;;24.47;54.43;98572.19;432765;1271;108920;-41
2022/06/24 04:04:25;;;;;;;6.90;4.70;;;;;;;26.02;52.32;98574.91;432719;1271;98174;-42
2022/06/24 04:24:51;;;;;;;13.80;5.20;;;;;;;27.97;48.20;98580.70;432476;1271;111227;-44
2022/06/24 04:34:55;;;;;;;9.60;6.60;;;;;;;28.47;46.31;98580.30;432507;1271;98026;-42
2022/06/24 04:44:58;;;;;;;9.20;4.70;;;;;;;28.88;44.36;98583.09;432642;1271;97908;-42
2022/06/24 04:55:02;;;;;;;8.70;3.40;;;;;;;29.15;43.22;98582.50;432796;1271;108495;-44
2022/06/24 05:05:07;;;;;;;5.90;3.50;;;;;;;28.85;41.91;98579.20;432693;1271;97992;-42
2022/06/24 05:25:14;;;;;;;10.60;3.40;;;;;;;28.06;41.14;98574.77;432631;1271;98000;-43
2022/06/24 05:35:18;;;;;;;4.10;3.00;;;;;;;27.97;40.82;98572.25;432570;1271;111457;-46
2022/06/24 05:45:21;;;;;;;7.90;2.90;;;;;;;27.62;39.87;98574.05;432723;1271;98586;-44
2022/06/24 05:55:25;;;;;;;9.40;4.00;;;;;;;27.81;39.85;98571.20;432770;1271;97408;-43
2022/06/24 06:15:32;;;;;;;4.70;3.20;;;;;;;26.87;38.22;98575.46;432688;1271;107796;-44
2022/06/24 06:25:36;;;;;;;4.70;3.60;;;;;;;26.05;38.67;98581.92;432539;1271;98038;-45
2022/06/24 06:35:40;;;;;;;7.00;3.80;;;;;;;25.99;39.46;98588.92;432412;1271;109016;-43
2022/06/24 06:45:44;;;;;;;3.40;2.30;;;;;;;26.66;39.53;98586.84;432530;1271;96693;-43
2022/06/24 06:55:48;;;;;;;7.80;2.50;;;;;;;27.17;37.17;98579.24;432522;1271;111117;-43
2022/06/24 07:05:52;;;;;;;4.30;2.10;;;;;;;26.42;36.45;98576.43;432448;1271;98009;-45
2022/06/24 07:15:57;;;;;;;4.30;1.70;;;;;;;26.23;36.13;98572.29;432670;1271;97916;-42
2022/06/24 07:26:00;;;;;;;3.20;1.90;;;;;;;26.34;35.45;98576.07;432913;1271;111203;-43
2022/06/24 07:36:05;;;;;;;2.80;2.30;;;;;;;26.14;34.74;98569.65;432493;1271;99347;-42
2022/06/24 07:46:11;;;;;;;3.20;1.90;;;;;;;26.21;34.75;98564.30;432865;1271;97609;-42
2022/06/24 08:06:37;;;;;;;3.60;2.20;;;;;;;26.58;34.88;98555.19;432616;1271;111144;-42
2022/06/24 08:16:42;;;;;;;2.10;1.40;;;;;;;26.68;34.22;98547.25;432397;1271;97938;-42
2022/06/24 08:36:54;;;;;;;4.50;1.70;;;;;;;26.73;32.86;98522.09;432442;1271;111202;-42
2022/06/24 08:46:58;;;;;;;4.70;1.50;;;;;;;26.75;33.21;98521.85;432439;1271;98015;-43
2022/06/24 08:57:02;;;;;;;4.50;1.60;;;;;;;26.72;33.02;98513.05;432578;1271;98039;-44
2022/06/24 09:07:07;;;;;;;4.90;1.60;;;;;;;26.69;32.96;98507.77;432734;1271;111074;-42
2022/06/24 09:17:10;;;;;;;9.00;1.90;;;;;;;26.81;32.92;98496.00;432617;1271;107479;-42
2022/06/24 09:27:14;;;;;;;2.70;1.60;;;;;;;27.10;33.01;98497.22;432600;1271;97510;-46
2022/06/24 09:37:36;;;;;;;4.30;1.70;;;;;;;27.15;32.09;98489.69;432614;1271;110927;-47
2022/06/24 09:47:40;;;;;;;6.90;1.90;;;;;;;27.04;31.88;98485.64;432664;1271;108719;-42
2022/06/24 10:07:50;;;;;;;2.40;1.50;;;;;;;26.92;30.91;98469.90;432694;1271;111319;-41
2022/06/24 10:17:55;;;;;;;5.20;1.40;;;;;;;27.26;31.36;98460.84;432505;1271;108787;-39
2022/06/24 10:28:07;;;;;;;3.60;1.20;;;;;;;27.29;30.66;98460.32;432513;1271;97518;-41
2022/06/24 10:38:12;;;;;;;6.30;1.60;;;;;;;26.98;29.42;98450.17;432801;1271;108961;-45
2022/06/24 10:48:16;;;;;;;3.70;1.40;;;;;;;27.16;29.96;98444.35;432583;1271;97586;-41
2022/06/24 10:58:19;;;;;;;1.70;1.20;;;;;;;27.44;30.61;98431.66;432525;1271;111125;-41
2022/06/24 11:08:25;;;;;;;1.60;1.50;;;;;;;27.45;29.60;98429.22;432548;1271;107193;-42
2022/06/24 11:18:31;;;;;;;2.30;1.70;;;;;;;27.61;29.82;98418.55;432470;1271;97968;-41
2022/06/24 11:38:53;;;;;;;1.90;1.70;;;;;;;27.64;29.72;98398.23;432529;1271;109416;-43
2022/06/24 11:49:04;;;;;;;5.30;1.60;;;;;;;27.49;30.44;98390.98;432472;1271;97581;-42
2022/06/24 11:59:09;;;;;;;1.30;1.20;;;;;;;27.74;30.68;98387.42;432575;1271;111235;-42
2022/06/24 12:09:13;;;;;;;4.90;1.30;;;;;;;27.55;30.01;98377.20;432586;1271;109513;-43
2022/06/24 12:19:17;;;;;;;3.50;1.10;;;;;;;27.78;30.45;98366.95;432701;1271;96668;-40
2022/06/24 12:29:24;;;;;;;2.60;1.50;;;;;;;27.98;30.48;98357.37;432696;1271;108905;-42
2022/06/24 12:39:27;;;;;;;5.20;1.30;;;;;;;28.07;30.50;98347.56;432559;1271;97905;-42
2022/06/24 12:59:57;;;;;;;4.30;1.20;;;;;;;28.03;29.73;98320.36;432461;1271;107590;-41
2022/06/24 13:10:00;;;;;;;4.90;1.30;;;;;;;27.98;29.49;98312.73;432552;1271;98633;-42
2022/06/24 13:20:07;;;;;;;1.80;1.30;;;;;;;28.05;29.90;98307.44;432584;1271;111101;-41
2022/06/24 13:30:13;;;;;;;3.30;1.40;;;;;;;28.06;29.53;98304.28;432625;1271;108646;-43
2022/06/24 13:40:17;;;;;;;2.90;1.50;;;;;;;28.24;30.47;98301.14;432437;1270;96981;-41
2022/06/24 13:50:21;;;;;;;6.70;1.50;;;;;;;28.25;29.75;98298.05;432512;1271;111085;-44
2022/06/24 14:00:25;;;;;;;2.10;1.10;;;;;;;28.07;29.50;98300.27;432075;1271;639995;-41
2022/06/24 14:10:29;;;;;;;2.50;1.30;;;;;;;27.97;29.69;98286.23;432559;1271;97060;-42
2022/06/24 14:20:34;;;;;;;2.20;1.70;;;;;;;28.07;30.00;98277.52;432472;1271;111250;-41
2022/06/24 14:30:38;;;;;;;7.10;1.50;;;;;;;28.24;30.08;98257.73;432386;1271;108676;-40
2022/06/24 14:40:42;;;;;;;3.20;1.40;;;;;;;28.07;29.99;98245.67;432609;1271;97986;-42
2022/06/24 14:50:58;;;;;;;1.60;1.50;;;;;;;27.98;29.91;98238.72;432821;1271;111187;-41
2022/06/24 15:01:02;;;;;;;4.10;1.40;;;;;;;27.90;30.14;98223.79;432447;1271;108798;-43
2022/06/24 15:11:06;;;;;;;3.90;1.80;;;;;;;27.90;30.05;98209.49;432657;1271;98033;-41
2022/06/24 15:21:10;;;;;;;3.90;1.80;;;;;;;27.79;29.66;98200.31;432704;1271;109799;-42
2022/06/24 15:41:23;;;;;;;2.10;1.70;;;;;;;27.73;29.95;98182.88;432666;1271;111226;-43
2022/06/24 15:51:27;;;;;;;2.60;1.80;;;;;;;27.63;30.44;98175.89;432612;1271;97938;-41
2022/06/24 16:01:30;;;;;;;3.80;1.40;;;;;;;27.55;30.95;98163.65;432515;1271;96693;-44
2022/06/24 16:11:34;;;;;;;2.00;1.50;;;;;;;27.48;31.51;98160.47;432310;1271;111460;-41
2022/06/24 16:21:38;;;;;;;6.60;1.90;;;;;;;27.39;31.67;98157.38;432590;1271;108888;-41
2022/06/24 16:31:42;;;;;;;4.50;2.40;;;;;;;27.28;31.91;98151.84;432877;1271;97922;-42
2022/06/24 16:41:46;;;;;;;3.20;2.10;;;;;;;27.11;31.76;98151.81;432554;1271;97494;-42
2022/06/24 16:51:50;;;;;;;2.50;1.80;;;;;;;26.91;32.34;98147.48;432467;1271;108740;-42
2022/06/24 17:01:54;;;;;;;4.20;1.80;;;;;;;26.78;32.65;98149.39;432632;1271;98054;-42
2022/06/24 17:11:58;;;;;;;8.50;5.30;;;;;;;26.62;33.21;98147.48;432589;1271;97932;-41
2022/06/24 17:22:00;;;;;;;3.80;2.40;;;;;;;26.51;33.50;98158.38;432519;1271;108654;-44
2022/06/24 17:32:06;;;;;;;4.70;3.50;;;;;;;26.33;34.23;98164.80;432710;1271;97916;-45
2022/06/24 17:42:10;;;;;;;8.10;3.20;;;;;;;26.14;34.80;98171.37;432455;1271;111132;-42
2022/06/24 17:52:13;;;;;;;5.50;2.90;;;;;;;25.98;35.19;98173.75;432568;1271;108282;-42
2022/06/24 18:02:17;;;;;;;5.60;3.00;;;;;;;25.73;35.52;98176.42;432528;1271;97964;-42
2022/06/24 18:12:21;;;;;;;8.40;3.10;;;;;;;25.51;36.00;98179.64;432407;1271;97911;-41
2022/06/24 18:32:29;;;;;;;21.10;11.70;;;;;;;24.98;37.23;98170.64;432539;1271;96685;-43
2022/06/24 18:42:33;;;;;;;14.80;11.50;;;;;;;24.75;37.79;98168.59;432612;1271;97100;-42
2022/06/24 18:52:37;;;;;;;8.40;5.60;;;;;;;24.48;38.27;98169.55;432520;1271;108770;-43
2022/06/24 19:02:41;;;;;;;5.00;3.80;;;;;;;24.17;38.94;98174.65;432521;1271;98597;-42
2022/06/24 19:12:45;;;;;;;5.50;3.60;;;;;;;23.90;39.51;98172.49;432623;1271;108740;-44
2022/06/24 19:22:49;;;;;;;4.40;3.10;;;;;;;23.60;40.24;98170.88;432475;1271;98035;-42
2022/06/24 19:32:54;;;;;;;7.40;3.20;;;;;;;23.32;40.75;98167.84;432547;1270;109950;-42
2022/06/24 19:43:01;;;;;;;5.60;3.50;;;;;;;23.00;41.54;98177.35;432670;1271;108867;-44
2022/06/24 20:13:31;;;;;;;9.90;4.10;;;;;;;22.44;43.37;98178.37;432436;1271;108666;-44
2022/06/24 20:23:40;;;;;;;4.30;2.80;;;;;;;22.28;43.87;98181.23;432598;1271;98239;-42
2022/06/24 20:33:45;;;;;;;6.00;3.30;;;;;;;22.14;44.29;98188.50;432735;1271;108826;-45
2022/06/24 20:43:49;;;;;;;7.40;3.60;;;;;;;21.98;44.66;98187.60;432686;1271;97933;-43
2022/06/24 20:53:53;;;;;;;7.00;3.20;;;;;;;21.81;45.19;98182.80;432429;1271;111437;-43
2022/06/24 21:03:56;;;;;;;7.00;4.00;;;;;;;21.67;45.63;98178.30;432595;1271;109343;-41
2022/06/24 21:14:00;;;;;;;5.80;3.90;;;;;;;21.60;46.51;98175.59;432460;1271;97926;-44
2022/06/24 21:24:03;;;;;;;6.80;4.20;;;;;;;21.47;46.56;98177.82;432642;1270;108833;-45
2022/06/24 21:34:07;;;;;;;12.00;5.60;;;;;;;21.37;46.80;98170.90;432515;1271;97932;-41
2022/06/24 21:44:11;;;;;;;12.70;6.00;;;;;;;21.24;47.32;98176.16;432771;1271;111410;-44
2022/06/24 21:54:15;;;;;;;10.50;6.30;;;;;;;21.18;47.57;98179.98;432470;1271;97907;-42
2022/06/24 22:14:23;;;;;;;9.00;5.50;;;;;;;20.94;48.11;98172.66;432709;1271;111140;-43
2022/06/24 22:24:27;;;;;;;13.30;5.10;;;;;;;20.86;48.38;98168.05;432444;1271;107546;-42
2022/06/24 22:34:31;;;;;;;9.80;5.40;;;;;;;20.81;48.57;98170.77;432793;1271;97904;-42
2022/06/24 22:54:38;;;;;;;8.20;4.40;;;;;;;20.79;48.63;98159.90;432704;1271;108898;-43
2022/06/24 23:04:42;;;;;;;10.40;5.10;;;;;;;20.69;49.04;98156.09;432569;1271;100084;-43
2022/06/24 23:14:46;;;;;;;11.40;5.00;;;;;;;20.64;49.31;98151.73;432421;1270;97916;-42
2022/06/24 23:24:50;;;;;;;7.70;4.60;;;;;;;20.59;49.36;98142.27;432569;1270;108698;-45
2022/06/24 23:44:57;;;;;;;8.10;4.70;;;;;;;20.30;49.68;98147.14;432658;1271;97036;-43
2022/06/24 23:55:01;;;;;;;8.30;4.60;;;;;;;19.93;50.33;98151.17;432581;1271;108673;-44
